Oxelosund, Sweden
Current Conditions -  °F | °C
As of 7:20 AM on Thursday 27 Nov 2014 (Local Time) from ESKN Reporting Station
Haze Haze  
Wind Chill: -3°   Ceiling: 2500
Heat Index:   Visibility: 5mi
Dew Point:   Wind: 5mph
Humidity: 100%   Direction: 340°NNW
Pressure: 30.21"   Gusts: NA
Location:  58.67°N, 17.1°E
Report Text: ESKN 270620Z 34004KT 8000 BR BKN025 00/M00 Q1023 R26/290195
Loading
Personal Weather Stations






























Interactive Weather Map New forecast layout! Learn more

10-Day Weather Forecast

Advertisements
Track Severe Weather on mobile